Time;durP1;ratioP1;P1;durP2;ratioP2;P2;SDS_P1;SDS_P2;PMS_P1;PMS_P2;Temp;Humidity;BMP_temperature;BMP_pressure;BME280_temperature;BME280_humidity;BME280_pressure;Samples;Min_cycle;Max_cycle;Signal;HPM_P1;HPM_P2
2022/07/31 00:01:17;;;;;;;8.40;7.47;;;;;;;22.52;67.95;100874.63;4997801;28;102448;-55
2022/07/31 00:03:44;;;;;;;7.13;6.43;;;;;;;22.52;67.77;100878.22;4996157;28;103929;-55
2022/07/31 00:06:12;;;;;;;9.75;6.82;;;;;;;22.53;67.88;100876.25;4996650;28;102255;-56
2022/07/31 00:08:39;;;;;;;10.32;6.90;;;;;;;22.52;67.71;100882.94;4995702;28;102165;-56
2022/07/31 00:11:06;;;;;;;8.05;6.57;;;;;;;22.52;67.66;100880.97;4998185;28;102143;-55
2022/07/31 00:13:33;;;;;;;10.25;6.72;;;;;;;22.52;67.82;100880.19;4995744;28;103961;-55
2022/07/31 00:16:00;;;;;;;8.82;6.63;;;;;;;22.52;67.75;100886.53;4997278;28;102107;-55
2022/07/31 00:18:26;;;;;;;7.70;6.82;;;;;;;22.51;67.60;100879.38;4996080;28;102365;-55
2022/07/31 00:20:52;;;;;;;8.20;6.85;;;;;;;22.52;68.07;100880.19;4997245;28;102867;-55
2022/07/31 00:23:20;;;;;;;9.23;7.28;;;;;;;22.51;67.58;100884.13;4995021;28;104096;-55
2022/07/31 00:25:47;;;;;;;7.72;7.03;;;;;;;22.51;67.83;100897.97;4997159;28;102116;-55
2022/07/31 00:28:14;;;;;;;8.35;6.72;;;;;;;22.51;67.60;100890.47;4995500;28;102327;-55
2022/07/31 00:30:40;;;;;;;7.78;6.97;;;;;;;22.51;67.58;100884.13;4997798;28;102017;-55
2022/07/31 00:33:07;;;;;;;7.15;6.45;;;;;;;22.51;67.76;100884.13;4996226;28;103943;-53
2022/07/31 00:35:34;;;;;;;10.52;6.65;;;;;;;22.51;67.88;100878.56;4995565;28;102770;-53
2022/07/31 00:38:01;;;;;;;8.10;6.90;;;;;;;22.50;67.71;100885.25;4996503;28;101931;-53
2022/07/31 00:40:29;;;;;;;8.93;6.65;;;;;;;22.50;67.67;100893.56;4997767;28;102223;-53
2022/07/31 00:42:55;;;;;;;10.70;7.43;;;;;;;22.50;67.72;100888.03;4995473;28;103914;-53
2022/07/31 00:45:23;;;;;;;7.70;6.90;;;;;;;22.50;67.56;100893.56;4996149;28;102328;-53
2022/07/31 00:47:49;;;;;;;8.10;7.28;;;;;;;22.50;67.68;100888.03;4995642;28;102347;-54
2022/07/31 00:50:16;;;;;;;7.97;6.90;;;;;;;22.50;67.86;100888.84;4996974;28;102094;-53
2022/07/31 00:52:43;;;;;;;7.40;6.70;;;;;;;22.49;67.69;100894.75;4995934;28;103992;-53
2022/07/31 00:55:09;;;;;;;8.45;6.80;;;;;;;22.50;67.87;100891.63;4996926;28;102051;-53
2022/07/31 00:57:37;;;;;;;9.25;6.75;;;;;;;22.49;67.69;100892.78;4996768;28;101959;-53
2022/07/31 01:00:05;;;;;;;8.00;6.68;;;;;;;22.49;67.68;100892.78;4996326;28;102100;-54
2022/07/31 01:02:32;;;;;;;11.43;7.20;;;;;;;22.48;67.86;100880.06;4995381;28;104078;-53
2022/07/31 01:04:59;;;;;;;8.38;6.78;;;;;;;22.49;67.63;100886.41;4995474;28;102277;-53
2022/07/31 01:07:25;;;;;;;7.68;6.88;;;;;;;22.48;68.08;100885.63;4985875;28;102288;-53
2022/07/31 01:09:54;;;;;;;8.48;6.63;;;;;;;22.48;67.68;100882.84;4994976;28;102208;-53
2022/07/31 01:12:28;;;;;;;7.97;6.60;;;;;;;22.48;67.56;100887.59;4991203;28;103977;-53
2022/07/31 01:15:02;;;;;;;8.52;6.80;;;;;;;22.48;67.82;100890.34;5012107;28;102559;-54
2022/07/31 01:17:31;;;;;;;7.18;6.47;;;;;;;22.48;67.61;100884.81;5019399;28;102176;-53
2022/07/31 01:19:58;;;;;;;8.27;6.30;;;;;;;22.48;67.78;100887.59;5012939;28;102087;-53
2022/07/31 01:22:51;;;;;;;7.75;6.95;;;;;;;22.48;67.52;100884.81;4998546;28;104040;-53
2022/07/31 01:25:29;;;;;;;7.18;6.47;;;;;;;22.48;67.99;100887.59;4996239;28;101982;-53
2022/07/31 01:28:03;;;;;;;8.57;7.47;;;;;;;22.48;67.74;100884.81;4998720;28;102512;-53
2022/07/31 01:30:36;;;;;;;8.82;6.40;;;;;;;22.46;67.66;100882.38;5000045;28;102264;-53
2022/07/31 01:33:08;;;;;;;9.07;6.85;;;;;;;22.48;67.60;100876.50;4998271;28;104233;-53
2022/07/31 01:35:39;;;;;;;8.27;7.00;;;;;;;22.46;67.88;100871.28;4999339;28;102143;-53
2022/07/31 01:38:12;;;;;;;8.50;6.75;;;;;;;22.46;68.00;100868.50;4998246;28;102892;-53
2022/07/31 01:40:42;;;;;;;8.82;6.63;;;;;;;22.47;67.85;100875.69;5000445;28;102204;-53
2022/07/31 01:43:15;;;;;;;9.75;7.07;;;;;;;22.47;67.70;100877.66;4998584;28;104115;-54
2022/07/31 01:45:46;;;;;;;10.30;6.70;;;;;;;22.47;68.10;100872.09;4999030;28;102282;-53
2022/07/31 01:48:14;;;;;;;15.55;6.57;;;;;;;22.46;67.75;100871.28;4998395;28;102058;-53
2022/07/31 01:50:43;;;;;;;7.03;6.28;;;;;;;22.47;67.72;100874.88;4999775;28;102232;-53
2022/07/31 01:53:11;;;;;;;;;;;;;;;22.47;67.96;100872.09;4998267;28;103953;-53
2022/07/31 01:55:40;;;;;;;;;;;;;;;22.46;67.95;100876.00;4999279;28;102143;-54
2022/07/31 01:58:07;;;;;;;;;;;;;;;22.46;67.93;100882.38;4980022;28;102189;-53
2022/07/31 02:00:35;;;;;;;;;;;;;;;22.46;67.58;100873.25;4994942;28;102667;-53
2022/07/31 02:03:03;;;;;;;;;;;;;;;22.45;67.82;100869.66;4999233;28;103983;-54
2022/07/31 02:05:30;;;;;;;8.13;6.50;;;;;;;22.46;67.56;100864.91;4996379;28;102067;-53
2022/07/31 02:07:58;;;;;;;9.45;7.03;;;;;;;22.46;67.90;100870.47;4988250;28;102066;-54
2022/07/31 02:10:26;;;;;;;8.27;6.83;;;;;;;22.45;67.58;100863.31;4986260;28;102163;-53
2022/07/31 02:12:53;;;;;;;9.18;6.13;;;;;;;22.45;67.68;100863.31;4983964;28;103902;-53
2022/07/31 02:15:20;;;;;;;8.27;6.13;;;;;;;22.45;67.66;100868.84;4989794;28;102949;-53
2022/07/31 02:17:49;;;;;;;7.85;7.05;;;;;;;22.44;67.34;100870.84;4996958;28;102638;-53
2022/07/31 02:20:19;;;;;;;7.53;6.47;;;;;;;22.44;67.48;100859.75;4998070;28;102189;-53
2022/07/31 02:22:45;;;;;;;7.75;6.50;;;;;;;22.44;67.51;100856.16;4996378;28;103938;-54
2022/07/31 02:25:12;;;;;;;7.80;6.45;;;;;;;22.45;67.64;100857.78;4997562;28;102368;-53
2022/07/31 02:27:42;;;;;;;8.32;6.70;;;;;;;22.45;67.91;100863.31;4996181;28;101817;-53
2022/07/31 02:30:10;;;;;;;7.03;6.32;;;;;;;22.45;67.34;100857.78;4990321;28;102200;-53
2022/07/31 02:32:38;;;;;;;8.10;6.50;;;;;;;22.44;67.47;100861.72;4996217;28;103921;-53
2022/07/31 02:35:06;;;;;;;7.30;6.57;;;;;;;22.45;67.43;100857.78;4997441;28;102508;-53
2022/07/31 02:37:37;;;;;;;8.13;6.67;;;;;;;22.44;67.56;100856.16;4979538;28;102277;-53
2022/07/31 02:40:06;;;;;;;7.90;6.40;;;;;;;22.44;67.49;100861.72;4994693;28;102281;-53
2022/07/31 02:42:33;;;;;;;7.80;6.60;;;;;;;22.44;67.61;100856.16;5014670;28;103939;-53
2022/07/31 02:45:00;;;;;;;7.15;6.45;;;;;;;22.43;67.40;100855.34;5009611;28;102496;-53
2022/07/31 02:47:30;;;;;;;7.72;6.72;;;;;;;22.44;67.63;100856.16;4986423;28;102570;-53
2022/07/31 02:49:56;;;;;;;7.75;6.45;;;;;;;22.44;67.46;100854.19;4995331;28;102119;-53
2022/07/31 02:52:23;;;;;;;8.77;6.40;;;;;;;22.44;67.73;100848.66;4997593;28;103965;-53
2022/07/31 02:54:52;;;;;;;8.23;6.90;;;;;;;22.44;67.62;100851.41;4997919;28;102298;-53
2022/07/31 02:57:18;;;;;;;8.00;6.82;;;;;;;22.43;67.69;100849.81;4985254;28;102500;-53
2022/07/31 02:59:45;;;;;;;8.15;6.32;;;;;;;22.44;67.61;100847.84;4997590;28;102212;-53
2022/07/31 03:02:11;;;;;;;8.02;6.32;;;;;;;22.43;67.45;100852.59;4997929;28;103913;-53
2022/07/31 03:04:38;;;;;;;10.20;7.22;;;;;;;22.44;67.78;100847.84;4998391;28;102113;-53
2022/07/31 03:07:05;;;;;;;7.72;6.93;;;;;;;22.44;67.83;100843.09;4997189;28;102396;-53
2022/07/31 03:09:31;;;;;;;8.95;6.60;;;;;;;22.45;67.63;100846.69;4999217;28;102336;-53
2022/07/31 03:12:00;;;;;;;7.18;6.32;;;;;;;22.44;67.73;100845.06;4996865;28;104020;-53
2022/07/31 03:14:29;;;;;;;9.00;6.78;;;;;;;22.45;67.76;100843.91;4991401;28;102015;-53
2022/07/31 03:16:56;;;;;;;9.23;6.53;;;;;;;22.45;67.92;100847.47;4979466;28;102229;-53
2022/07/31 03:19:24;;;;;;;9.35;6.80;;;;;;;22.45;67.80;100847.47;4997876;28;102188;-53
2022/07/31 03:21:51;;;;;;;9.50;6.80;;;;;;;22.46;67.77;100845.50;4997002;28;103960;-53
2022/07/31 03:24:18;;;;;;;8.48;6.57;;;;;;;22.46;67.92;100840.78;4996535;28;102456;-53
2022/07/31 03:26:45;;;;;;;7.45;6.65;;;;;;;22.46;68.17;100842.75;4989736;28;101951;-53
2022/07/31 03:29:13;;;;;;;8.45;6.57;;;;;;;22.47;68.12;100841.59;4998555;28;102187;-53
2022/07/31 03:31:39;;;;;;;6.60;6.00;;;;;;;22.47;68.01;100839.63;4997254;28;103891;-53
2022/07/31 03:34:06;;;;;;;7.45;6.43;;;;;;;22.47;67.94;100841.59;4996651;28;102032;-53
2022/07/31 03:36:33;;;;;;;7.68;6.78;;;;;;;22.48;68.13;100841.25;4997383;28;102166;-53
2022/07/31 03:38:59;;;;;;;7.43;6.47;;;;;;;22.48;68.00;100835.69;4998118;28;102195;-53
2022/07/31 03:41:26;;;;;;;8.00;7.20;;;;;;;22.49;67.93;100830.94;4996676;28;104203;-53
2022/07/31 03:43:52;;;;;;;8.05;6.38;;;;;;;22.50;68.08;100832.56;4997996;28;102240;-53
2022/07/31 03:46:23;;;;;;;7.75;6.75;;;;;;;22.51;67.71;100823.09;4995836;28;102113;-53
2022/07/31 03:48:50;;;;;;;8.35;6.95;;;;;;;22.51;67.67;100835.00;4997948;28;101951;-53
2022/07/31 03:51:18;;;;;;;8.90;6.93;;;;;;;22.52;67.62;100824.72;4996368;28;104133;-53
2022/07/31 03:53:45;;;;;;;7.40;6.60;;;;;;;22.53;67.90;100826.31;4997062;28;102335;-53
2022/07/31 03:56:13;;;;;;;7.88;6.38;;;;;;;22.54;67.41;100825.97;4997128;28;102455;-53
2022/07/31 03:58:40;;;;;;;12.32;6.95;;;;;;;22.53;67.73;100820.78;4997295;28;102169;-55
2022/07/31 04:01:07;;;;;;;9.07;6.85;;;;;;;22.55;66.47;100818.47;4996360;28;107980;-54
2022/07/31 04:03:35;;;;;;;7.90;6.47;;;;;;;22.54;67.55;100816.88;4996686;28;102153;-54
2022/07/31 04:06:01;;;;;;;9.07;7.27;;;;;;;22.55;66.50;100815.69;4993730;28;102134;-55
2022/07/31 04:08:28;;;;;;;10.35;7.57;;;;;;;22.58;66.49;100822.53;4992391;28;102125;-55
2022/07/31 04:10:55;;;;;;;11.93;7.50;;;;;;;22.59;66.65;100813.84;4986348;28;103818;-54
2022/07/31 04:13:21;;;;;;;9.13;7.10;;;;;;;22.59;67.69;100815.81;4997662;28;102148;-54
2022/07/31 04:15:48;;;;;;;8.25;7.05;;;;;;;22.57;67.96;100812.56;4996690;28;102497;-55
2022/07/31 04:18:14;;;;;;;8.90;7.60;;;;;;;22.59;67.48;100808.28;4997610;28;102216;-54
2022/07/31 04:20:43;;;;;;;8.60;7.68;;;;;;;22.58;67.88;100811.41;4996551;28;103839;-54
2022/07/31 04:23:09;;;;;;;7.90;6.93;;;;;;;22.59;67.56;100813.84;4996175;28;102227;-54
2022/07/31 04:25:36;;;;;;;8.85;6.90;;;;;;;22.59;67.20;100811.06;4994662;28;102148;-54
2022/07/31 04:28:03;;;;;;;8.98;7.10;;;;;;;22.59;67.49;100813.84;4997831;28;102514;-54
2022/07/31 04:30:29;;;;;;;7.50;6.72;;;;;;;22.59;67.84;100808.28;4995743;28;104090;-55
2022/07/31 04:32:58;;;;;;;7.80;6.70;;;;;;;22.61;67.23;100808.75;4996936;28;102500;-55
2022/07/31 04:35:24;;;;;;;9.57;7.88;;;;;;;22.62;66.69;100806.78;4996323;28;102173;-54
2022/07/31 04:37:52;;;;;;;8.25;6.95;;;;;;;22.63;66.97;100808.38;4996631;28;102141;-54
2022/07/31 04:40:18;;;;;;;8.37;7.20;;;;;;;22.62;68.19;100818.69;4995616;28;104135;-55
2022/07/31 04:42:45;;;;;;;8.82;6.68;;;;;;;22.62;68.01;100818.69;4996431;28;102875;-55
2022/07/31 04:45:12;;;;;;;8.40;6.53;;;;;;;22.63;67.57;100814.75;4994141;28;104947;-54
2022/07/31 04:47:40;;;;;;;9.52;7.28;;;;;;;22.64;67.40;100816.34;4994335;28;102260;-55
2022/07/31 04:50:08;;;;;;;10.38;7.75;;;;;;;22.67;67.40;100815.66;4994835;28;104402;-54
2022/07/31 04:52:34;;;;;;;8.60;7.70;;;;;;;22.66;67.29;100814.03;4996723;28;102168;-54
2022/07/31 04:55:02;;;;;;;8.75;7.38;;;;;;;22.68;67.55;100808.94;4996414;28;102158;-55
2022/07/31 04:57:29;;;;;;;9.23;6.80;;;;;;;22.68;67.54;100806.16;4996637;28;102271;-54
2022/07/31 04:59:55;;;;;;;9.05;7.22;;;;;;;22.68;68.39;100814.50;4996029;28;104060;-54
2022/07/31 05:02:22;;;;;;;8.57;7.38;;;;;;;22.69;67.71;100807.81;4995433;28;102199;-54
2022/07/31 05:04:48;;;;;;;8.70;7.50;;;;;;;22.71;67.06;100812.97;4994602;28;102154;-54
2022/07/31 05:07:15;;;;;;;8.25;7.45;;;;;;;22.73;67.76;100807.91;4993803;28;102307;-54
2022/07/31 05:09:41;;;;;;;7.63;6.78;;;;;;;22.73;67.40;100805.94;4994783;28;104015;-54
2022/07/31 05:12:09;;;;;;;8.25;7.28;;;;;;;22.73;67.84;100808.72;4996042;28;102377;-54
2022/07/31 05:14:36;;;;;;;11.20;7.27;;;;;;;22.74;67.87;100799.22;4996124;28;102291;-54
2022/07/31 05:17:02;;;;;;;8.60;7.13;;;;;;;22.76;68.14;100807.22;4996796;28;102175;-54
2022/07/31 05:19:29;;;;;;;8.93;7.55;;;;;;;22.77;67.98;100809.63;4988827;28;104131;-54
2022/07/31 05:21:58;;;;;;;10.43;8.13;;;;;;;22.76;68.07;100809.97;4995594;28;102235;-55
2022/07/31 05:24:25;;;;;;;9.15;7.45;;;;;;;22.78;67.74;100814.00;4995189;28;102125;-54
2022/07/31 05:26:51;;;;;;;9.52;7.60;;;;;;;22.80;67.46;100810.88;4997455;28;102134;-54
2022/07/31 05:29:19;;;;;;;8.43;7.55;;;;;;;22.82;66.87;100810.53;5004168;28;104091;-54
2022/07/31 05:31:46;;;;;;;8.15;7.35;;;;;;;22.87;66.46;100796.41;5006031;28;101993;-54
2022/07/31 05:34:13;;;;;;;8.35;7.45;;;;;;;22.88;66.93;100807.16;4995601;28;102288;-54
2022/07/31 05:36:39;;;;;;;9.18;7.38;;;;;;;22.89;66.07;100794.09;4996891;28;102145;-54
2022/07/31 05:39:06;;;;;;;9.68;8.15;;;;;;;22.93;65.50;100797.78;4995572;28;104030;-55
2022/07/31 05:41:33;;;;;;;9.82;8.82;;;;;;;22.93;66.57;100801.38;4994761;28;102006;-54
2022/07/31 05:44:00;;;;;;;11.38;7.97;;;;;;;22.96;66.68;100799.88;4995212;28;102126;-54
2022/07/31 05:46:28;;;;;;;10.10;7.97;;;;;;;22.94;65.89;100797.47;4994583;28;102474;-54
2022/07/31 05:48:54;;;;;;;12.57;7.87;;;;;;;22.97;67.04;100801.47;4995186;28;103912;-54
2022/07/31 05:51:21;;;;;;;9.82;8.35;;;;;;;22.97;66.96;100798.69;4995412;28;102513;-54
2022/07/31 05:53:49;;;;;;;10.90;7.97;;;;;;;22.97;66.92;100799.53;4995399;28;102065;-54
2022/07/31 05:56:15;;;;;;;9.85;7.32;;;;;;;23.00;65.79;100806.31;4996604;28;102163;-54
2022/07/31 05:58:42;;;;;;;15.50;7.80;;;;;;;23.04;66.49;100812.78;4998732;28;103887;-54
2022/07/31 06:01:09;;;;;;;10.50;8.00;;;;;;;23.05;66.49;100803.31;4999164;28;102325;-54
2022/07/31 06:03:39;;;;;;;11.63;8.35;;;;;;;23.07;66.40;100805.72;4999129;28;102998;-54
2022/07/31 06:06:05;;;;;;;10.63;8.10;;;;;;;23.07;66.37;100803.75;4998804;28;102419;-54
2022/07/31 06:08:32;;;;;;;12.23;8.10;;;;;;;23.08;66.54;100801.78;4985934;28;103913;-54
2022/07/31 06:10:59;;;;;;;10.43;7.80;;;;;;;23.09;66.23;100804.22;4998237;28;101873;-54
2022/07/31 06:13:28;;;;;;;8.88;7.70;;;;;;;23.10;66.24;100789.16;4998240;28;101919;-54
2022/07/31 06:15:55;;;;;;;8.82;7.72;;;;;;;23.11;66.58;100793.53;4998600;28;102316;-55
2022/07/31 06:18:23;;;;;;;10.80;7.65;;;;;;;23.13;66.44;100804.31;4997964;28;103887;-54
2022/07/31 06:20:51;;;;;;;12.05;8.30;;;;;;;23.14;65.91;100797.59;4999061;28;102229;-54
2022/07/31 06:23:17;;;;;;;10.60;8.13;;;;;;;23.16;66.06;100795.28;4998048;28;102285;-54
2022/07/31 06:25:44;;;;;;;11.85;7.90;;;;;;;23.16;66.33;100790.53;4999153;28;102547;-54
2022/07/31 06:28:10;;;;;;;11.88;7.25;;;;;;;23.14;66.38;100790.06;4996804;28;103839;-54
2022/07/31 06:30:37;;;;;;;10.05;7.43;;;;;;;23.14;66.98;100794.81;4998691;28;102132;-54
2022/07/31 06:33:03;;;;;;;10.20;7.97;;;;;;;23.16;66.77;100792.50;4997493;28;102189;-54
2022/07/31 06:35:30;;;;;;;10.43;7.97;;;;;;;23.17;66.15;100797.69;4997565;28;103261;-54
2022/07/31 06:37:58;;;;;;;11.43;8.32;;;;;;;23.18;63.93;100795.72;4996549;28;103920;-54
2022/07/31 06:40:25;;;;;;;12.25;8.02;;;;;;;23.19;65.74;100789.81;4996650;28;102286;-54
2022/07/31 06:42:52;;;;;;;10.23;7.53;;;;;;;23.20;66.16;100796.19;4993980;28;102292;-55
2022/07/31 06:45:18;;;;;;;10.63;8.18;;;;;;;23.19;65.01;100792.59;4997863;28;102403;-54
2022/07/31 06:47:45;;;;;;;10.02;8.07;;;;;;;23.18;65.19;100796.50;4996570;28;104049;-54
2022/07/31 06:50:11;;;;;;;11.10;8.48;;;;;;;23.19;65.50;100789.81;4997599;28;102283;-54
2022/07/31 06:52:38;;;;;;;11.57;8.18;;;;;;;23.20;65.97;100790.63;4998244;28;102025;-55
2022/07/31 06:55:07;;;;;;;10.38;7.28;;;;;;;23.21;65.90;100795.81;4999325;28;102224;-54
2022/07/31 06:57:34;;;;;;;9.90;7.93;;;;;;;23.21;65.98;100790.25;4996970;28;108136;-54
2022/07/31 07:00:00;;;;;;;9.40;7.43;;;;;;;23.23;66.34;100793.50;4996144;28;102136;-54
2022/07/31 07:02:27;;;;;;;8.13;7.00;;;;;;;23.24;65.76;100789.56;4997723;28;102039;-55
2022/07/31 07:04:54;;;;;;;9.43;7.55;;;;;;;23.25;65.79;100790.34;4996221;28;102308;-54
2022/07/31 07:07:21;;;;;;;11.05;8.15;;;;;;;23.27;65.39;100780.50;4998394;28;103976;-54
2022/07/31 07:09:47;;;;;;;10.30;8.10;;;;;;;23.29;63.47;100790.44;4997092;28;102196;-54
2022/07/31 07:12:15;;;;;;;22.17;7.75;;;;;;;23.31;64.63;100790.91;4991114;28;102393;-54
2022/07/31 07:14:42;;;;;;;10.50;7.15;;;;;;;23.31;63.95;100785.34;4997530;28;102628;-55
2022/07/31 07:17:08;;;;;;;16.05;7.50;;;;;;;23.33;64.17;100783.00;4995934;28;104259;-55
2022/07/31 07:19:38;;;;;;;8.52;7.07;;;;;;;23.33;63.73;100786.59;4992334;28;102261;-54
2022/07/31 07:22:05;;;;;;;8.63;7.20;;;;;;;23.34;63.27;100790.22;4996167;28;102023;-55
2022/07/31 07:24:32;;;;;;;10.80;7.32;;;;;;;23.35;63.87;100777.94;4998451;28;102190;-54
2022/07/31 07:26:58;;;;;;;9.68;7.43;;;;;;;23.35;63.03;100783.47;4995642;28;103863;-54
2022/07/31 07:29:26;;;;;;;10.60;7.38;;;;;;;23.36;63.23;100785.09;4992029;28;102493;-54
2022/07/31 07:31:52;;;;;;;9.53;7.13;;;;;;;23.36;62.54;100779.53;4997685;28;102384;-54
2022/07/31 07:34:19;;;;;;;13.10;7.15;;;;;;;23.37;63.43;100779.19;4998626;28;102359;-55
2022/07/31 07:36:45;;;;;;;7.97;7.05;;;;;;;23.38;62.47;100780.00;4997612;28;103923;-55
2022/07/31 07:39:12;;;;;;;9.25;7.40;;;;;;;23.40;62.16;100783.22;4998100;28;102070;-54
2022/07/31 07:41:40;;;;;;;9.75;6.75;;;;;;;23.39;62.14;100778.81;4996762;28;102132;-54
2022/07/31 07:44:06;;;;;;;12.63;6.65;;;;;;;23.40;62.52;100781.22;4995708;28;102157;-55
2022/07/31 07:46:34;;;;;;;35.10;7.72;;;;;;;23.40;62.04;100772.91;4998020;28;104329;-55
2022/07/31 07:49:02;;;;;;;8.18;6.22;;;;;;;23.41;62.06;100780.09;4998890;28;102019;-55
2022/07/31 07:51:29;;;;;;;8.10;5.83;;;;;;;23.41;62.63;100776.50;4989879;28;102269;-54
2022/07/31 07:53:56;;;;;;;10.60;6.05;;;;;;;23.41;62.15;100776.50;4999696;28;102218;-55
2022/07/31 07:56:23;;;;;;;10.45;6.88;;;;;;;23.41;62.25;100770.97;4998171;28;103881;-54
2022/07/31 07:58:49;;;;;;;7.13;6.32;;;;;;;23.40;63.64;100778.44;4998459;28;102149;-54
2022/07/31 08:01:16;;;;;;;8.48;6.20;;;;;;;23.41;63.50;100770.97;4997526;28;102591;-54
2022/07/31 08:03:44;;;;;;;7.30;5.40;;;;;;;23.42;62.00;100773.38;4993560;28;101962;-55
2022/07/31 08:06:11;;;;;;;8.50;6.20;;;;;;;23.44;62.37;100775.78;4990060;28;104058;-55
2022/07/31 08:08:38;;;;;;;7.68;5.35;;;;;;;23.43;62.03;100769.41;4989287;28;102233;-55
2022/07/31 08:11:05;;;;;;;7.15;5.45;;;;;;;23.44;61.65;100761.88;4997529;28;102267;-55
2022/07/31 08:13:31;;;;;;;6.50;5.40;;;;;;;23.45;61.68;100766.28;4999145;28;102214;-54
2022/07/31 08:15:58;;;;;;;8.02;5.25;;;;;;;23.45;62.18;100766.28;4992204;28;104080;-54
2022/07/31 08:18:25;;;;;;;6.03;5.15;;;;;;;23.45;61.33;100758.78;4998153;28;102083;-54
2022/07/31 08:20:53;;;;;;;6.20;5.32;;;;;;;23.46;61.05;100756.78;4998099;28;102068;-54
2022/07/31 08:23:20;;;;;;;6.88;5.53;;;;;;;23.47;60.70;100752.84;4999119;28;102656;-54
2022/07/31 08:25:47;;;;;;;6.75;5.57;;;;;;;23.48;60.98;100757.25;4997752;28;103890;-54
2022/07/31 08:28:13;;;;;;;9.75;5.55;;;;;;;23.47;60.33;100748.09;4998304;28;102578;-54
2022/07/31 08:30:40;;;;;;;7.53;5.65;;;;;;;23.47;60.81;100747.28;4997006;28;102280;-54
2022/07/31 08:33:06;;;;;;;6.20;5.28;;;;;;;23.47;60.57;100741.72;4999090;28;102081;-54
2022/07/31 08:35:33;;;;;;;5.15;4.32;;;;;;;23.48;60.51;100743.38;4997826;28;103666;-54
2022/07/31 08:38:01;;;;;;;5.65;4.90;;;;;;;23.46;61.26;100734.56;4998254;28;101785;-54
2022/07/31 08:40:31;;;;;;;5.95;4.90;;;;;;;23.47;62.54;100731.41;4998020;28;101876;-54
2022/07/31 08:42:58;;;;;;;6.03;4.53;;;;;;;23.45;61.03;100719.09;4998473;28;101903;-54
2022/07/31 08:45:25;;;;;;;7.47;5.18;;;;;;;23.47;61.15;100731.41;4996761;28;103928;-54
2022/07/31 08:47:54;;;;;;;5.47;4.60;;;;;;;23.46;60.83;100723.47;4996902;28;102076;-54
2022/07/31 08:50:21;;;;;;;6.93;4.72;;;;;;;23.44;62.37;100725.78;5014327;27;102547;-54
2022/07/31 08:52:48;;;;;;;6.22;4.82;;;;;;;23.43;63.97;100724.97;5003896;28;102232;-54
2022/07/31 08:55:18;;;;;;;5.10;4.60;;;;;;;23.43;62.66;100708.31;4995661;28;103948;-53
2022/07/31 08:57:49;;;;;;;4.95;4.38;;;;;;;23.44;63.89;100721.06;5000424;28;102101;-53
2022/07/31 09:00:18;;;;;;;4.80;4.22;;;;;;;23.44;63.07;100714.66;4997610;28;102738;-53
2022/07/31 09:02:44;;;;;;;7.15;4.25;;;;;;;23.46;62.38;100707.59;4997133;28;102342;-53
2022/07/31 09:05:12;;;;;;;6.15;4.20;;;;;;;23.47;61.85;100720.31;4995198;28;104075;-53
2022/07/31 09:07:39;;;;;;;6.95;4.20;;;;;;;23.49;59.71;100717.19;4995888;28;102379;-53
2022/07/31 09:10:07;;;;;;;7.10;4.55;;;;;;;23.50;60.58;100716.03;4995828;28;102398;-53
2022/07/31 09:12:35;;;;;;;5.80;4.40;;;;;;;23.51;59.68;100703.75;4996049;28;102324;-53
2022/07/31 09:15:02;;;;;;;5.30;4.20;;;;;;;23.49;61.47;100703.31;4993976;28;103866;-53
2022/07/31 09:17:34;;;;;;;5.22;4.15;;;;;;;23.46;61.00;100696.50;4994940;28;102203;-54
2022/07/31 09:20:03;;;;;;;6.32;4.50;;;;;;;23.48;62.72;100696.16;4992920;28;102159;-53
2022/07/31 09:22:30;;;;;;;6.05;4.70;;;;;;;23.50;61.74;100696.56;4994500;28;102764;-53
2022/07/31 09:25:10;;;;;;;5.82;4.65;;;;;;;23.50;62.28;100693.81;4987047;28;107915;-54
2022/07/31 09:27:39;;;;;;;7.28;4.53;;;;;;;23.46;59.91;100687.34;4988545;28;102123;-53
2022/07/31 09:30:08;;;;;;;5.60;4.53;;;;;;;23.48;61.38;100683.06;4992383;28;102412;-54
2022/07/31 09:32:34;;;;;;;4.82;4.30;;;;;;;23.51;59.69;100681.50;4986424;28;102619;-53
2022/07/31 09:35:09;;;;;;;5.45;4.28;;;;;;;23.50;61.16;100688.25;4988907;28;103888;-53
2022/07/31 09:37:37;;;;;;;5.13;4.05;;;;;;;23.48;60.92;100682.25;4983164;28;102204;-53
2022/07/31 09:40:06;;;;;;;5.23;4.27;;;;;;;23.46;62.94;100684.56;4993584;28;102165;-53
2022/07/31 09:42:41;;;;;;;5.70;3.67;;;;;;;23.45;61.70;100677.41;4988591;28;103406;-53
2022/07/31 09:45:19;;;;;;;4.63;3.83;;;;;;;23.42;64.59;100669.81;4995091;28;103885;-53
2022/07/31 09:47:46;;;;;;;4.15;3.75;;;;;;;23.42;64.39;100672.59;4982351;28;102309;-53
2022/07/31 09:50:14;;;;;;;4.38;3.97;;;;;;;23.40;63.72;100661.00;4984906;28;102043;-53
2022/07/31 09:52:40;;;;;;;4.68;4.25;;;;;;;23.39;64.26;100667.75;4997168;28;102333;-53
2022/07/31 09:55:13;;;;;;;4.05;3.67;;;;;;;23.37;64.91;100670.06;4997651;28;103921;-53
2022/07/31 09:57:50;;;;;;;6.13;4.70;;;;;;;23.38;63.83;100666.13;4998468;28;101889;-53
2022/07/31 10:00:17;;;;;;;5.00;4.13;;;;;;;23.41;60.50;100663.44;4987358;28;102060;-53
2022/07/31 10:02:44;;;;;;;5.75;4.15;;;;;;;23.42;62.49;100667.81;4999246;28;102373;-53
2022/07/31 10:05:11;;;;;;;4.07;3.75;;;;;;;23.40;62.91;100661.81;4988888;28;103951;-53
2022/07/31 10:07:39;;;;;;;5.25;4.25;;;;;;;23.42;61.17;100658.69;4992841;28;102027;-53
2022/07/31 10:10:07;;;;;;;5.25;4.30;;;;;;;23.43;61.38;100671.41;4988809;28;102142;-53
2022/07/31 10:12:39;;;;;;;5.20;3.93;;;;;;;23.39;61.23;100662.19;4998462;28;102186;-53
2022/07/31 10:15:11;;;;;;;5.60;4.38;;;;;;;23.40;60.92;100649.91;4993278;28;103986;-53
2022/07/31 10:17:41;;;;;;;7.43;4.70;;;;;;;23.35;63.01;100653.78;4997887;28;102047;-53
2022/07/31 10:20:12;;;;;;;4.65;4.22;;;;;;;23.30;65.19;100653.22;4998777;28;102341;-53
2022/07/31 10:22:45;;;;;;;4.63;4.03;;;;;;;23.32;63.73;100653.69;4981839;28;101997;-53
2022/07/31 10:25:17;;;;;;;5.00;4.50;;;;;;;23.32;64.70;100645.34;4978812;28;103928;-54
2022/07/31 10:27:45;;;;;;;5.97;4.47;;;;;;;23.32;62.24;100643.38;4988887;28;102239;-53
2022/07/31 10:30:14;;;;;;;4.68;4.15;;;;;;;23.31;64.27;100644.56;4995789;28;102477;-54
2022/07/31 10:32:41;;;;;;;;;;;;;;;23.31;61.88;100640.97;4999407;28;102207;-54
2022/07/31 10:35:08;;;;;;;4.20;3.80;;;;;;;23.32;62.51;100639.78;4998526;28;104010;-53
2022/07/31 10:37:41;;;;;;;5.32;4.72;;;;;;;23.33;64.00;100641.41;4998786;28;102182;-53
2022/07/31 10:40:17;;;;;;;4.90;4.50;;;;;;;23.31;64.59;100639.00;4998737;28;102238;-53
2022/07/31 10:42:50;;;;;;;5.10;4.63;;;;;;;23.30;62.98;100636.56;4979912;28;102637;-53
2022/07/31 10:45:18;;;;;;;5.35;4.47;;;;;;;23.30;63.68;100622.69;4989285;28;104063;-54
2022/07/31 10:47:55;;;;;;;5.43;4.45;;;;;;;23.25;64.60;100627.34;4994453;28;102414;-54
2022/07/31 10:50:24;;;;;;;5.03;4.53;;;;;;;23.24;64.40;100622.16;4986736;28;102140;-54
2022/07/31 10:52:51;;;;;;;5.70;4.50;;;;;;;23.25;62.62;100619.00;4998452;28;102279;-54
2022/07/31 10:55:21;;;;;;;4.93;4.43;;;;;;;23.26;62.28;100614.25;4992531;28;104037;-53
2022/07/31 10:57:48;;;;;;;5.47;4.97;;;;;;;23.27;63.07;100613.91;4997970;28;102620;-53
2022/07/31 11:00:17;;;;;;;4.78;4.32;;;;;;;23.27;62.39;100610.34;4996546;28;102055;-53
2022/07/31 11:02:46;;;;;;;5.47;4.90;;;;;;;23.25;64.89;100602.34;4999003;28;102098;-53
2022/07/31 11:05:14;;;;;;;5.28;4.78;;;;;;;23.23;64.02;100601.94;4995989;28;103805;-53
2022/07/31 11:07:43;;;;;;;5.05;4.53;;;;;;;23.26;63.32;100603.16;4983552;28;103342;-53
2022/07/31 11:10:13;;;;;;;;;;;;;;;23.27;62.36;100602.00;4994109;28;102287;-53
2022/07/31 11:12:40;;;;;;;5.43;4.78;;;;;;;23.25;64.57;100602.34;4985411;28;102559;-53
2022/07/31 11:15:18;;;;;;;5.00;4.55;;;;;;;23.21;65.20;100604.25;4991417;28;103899;-53
2022/07/31 11:17:46;;;;;;;5.53;4.53;;;;;;;23.23;64.61;100588.03;4977781;28;101933;-53
2022/07/31 11:20:21;;;;;;;5.15;4.65;;;;;;;23.25;63.83;100587.66;4985561;28;101964;-53